SVA1032 OEJN-OERK
Flight info
| Callsign | SVA1032 |
|---|---|
| Flight time | 1h 15m |
| Altitude | 35000 |
| Route | EGREP T532 ORDEM |
| Aircraft | A333/H-SDE3GHIJ2J3J5M1RVWXY/LB2D1 |
Departure
| Time | 2026-04-29 09:57 |
|---|---|
| Airport | King Abdulaziz International Airport (OEJN) |
Arrival
| Time | 2026-04-29 11:12 |
|---|---|
| Airport | King Khalid International Airport (OERK) |
| Time | Latitude | Longitude | Altitude | Speed | Heading |
|---|---|---|---|---|---|
| 2026-04-29 09:23 | 21.66354 | 39.17593 | 42 ft | 0 kts | 195° |
| 2026-04-29 09:41 | 21.66360 | 39.17595 | 41 ft | 2 kts | 195° |
| 2026-04-29 09:41 | 21.66379 | 39.17600 | 39 ft | 3 kts | 193° |
| 2026-04-29 09:42 | 21.66399 | 39.17605 | 37 ft | 3 kts | 192° |
| 2026-04-29 09:42 | 21.66419 | 39.17610 | 37 ft | 2 kts | 193° |
| 2026-04-29 09:42 | 21.66436 | 39.17613 | 37 ft | 3 kts | 170° |
| 2026-04-29 09:42 | 21.66451 | 39.17606 | 35 ft | 5 kts | 120° |
| 2026-04-29 09:43 | 21.66458 | 39.17586 | 39 ft | 4 kts | 100° |
| 2026-04-29 09:43 | 21.66460 | 39.17574 | 39 ft | 2 kts | 101° |
| 2026-04-29 09:52 | 21.66460 | 39.17575 | 39 ft | 1 kts | 101° |
| 2026-04-29 09:53 | 21.66457 | 39.17586 | 39 ft | 3 kts | 103° |
| 2026-04-29 09:53 | 21.66449 | 39.17624 | 36 ft | 7 kts | 103° |
| 2026-04-29 09:53 | 21.66439 | 39.17682 | 40 ft | 9 kts | 97° |
| 2026-04-29 09:53 | 21.66436 | 39.17751 | 40 ft | 10 kts | 84° |
| 2026-04-29 09:54 | 21.66478 | 39.17789 | 40 ft | 8 kts | 359° |
| 2026-04-29 09:54 | 21.66530 | 39.17763 | 40 ft | 8 kts | 334° |
| 2026-04-29 09:54 | 21.66578 | 39.17766 | 38 ft | 3 kts | 34° |
| 2026-04-29 09:54 | 21.66582 | 39.17782 | 40 ft | 2 kts | 75° |
| 2026-04-29 09:55 | 21.66589 | 39.17808 | 40 ft | 6 kts | 71° |
| 2026-04-29 09:55 | 21.66604 | 39.17855 | 41 ft | 7 kts | 71° |
| 2026-04-29 09:55 | 21.66622 | 39.17907 | 41 ft | 9 kts | 70° |
| 2026-04-29 09:55 | 21.66647 | 39.17982 | 41 ft | 12 kts | 70° |
| 2026-04-29 09:56 | 21.66705 | 39.18025 | 41 ft | 12 kts | 353° |
| 2026-04-29 09:56 | 21.66887 | 39.17952 | 43 ft | 54 kts | 340° |
| 2026-04-29 09:56 | 21.67426 | 39.17743 | 36 ft | 110 kts | 340° |
| 2026-04-29 09:56 | 21.68302 | 39.17400 | 30 ft | 158 kts | 340° |
| 2026-04-29 09:57 | 21.69334 | 39.16961 | 704 ft | 157 kts | 339° |
| 2026-04-29 09:57 | 21.70355 | 39.16575 | 1463 ft | 158 kts | 342° |
| 2026-04-29 09:57 | 21.71511 | 39.16285 | 1806 ft | 184 kts | 348° |
| 2026-04-29 09:57 | 21.72845 | 39.16104 | 2268 ft | 200 kts | 353° |
| 2026-04-29 09:58 | 21.74268 | 39.16186 | 2742 ft | 216 kts | 13° |
| 2026-04-29 09:58 | 21.75694 | 39.16930 | 2953 ft | 242 kts | 29° |
| 2026-04-29 09:58 | 21.77124 | 39.17990 | 3423 ft | 254 kts | 32° |
| 2026-04-29 09:58 | 21.78585 | 39.19115 | 3992 ft | 263 kts | 32° |
| 2026-04-29 09:59 | 21.80115 | 39.20279 | 4534 ft | 276 kts | 32° |
| 2026-04-29 09:59 | 21.81720 | 39.21487 | 5062 ft | 286 kts | 32° |
| 2026-04-29 09:59 | 21.83371 | 39.22722 | 5718 ft | 292 kts | 33° |
| 2026-04-29 09:59 | 21.85047 | 39.23972 | 6419 ft | 295 kts | 34° |
| 2026-04-29 10:00 | 21.86756 | 39.25244 | 7029 ft | 301 kts | 33° |
| 2026-04-29 10:00 | 21.88484 | 39.26527 | 7808 ft | 301 kts | 33° |
| 2026-04-29 10:00 | 21.90208 | 39.27809 | 8614 ft | 302 kts | 32° |
| 2026-04-29 10:00 | 21.91943 | 39.29096 | 9388 ft | 304 kts | 32° |
| 2026-04-29 10:01 | 21.93701 | 39.30378 | 10146 ft | 307 kts | 31° |
| 2026-04-29 10:01 | 21.95554 | 39.31634 | 10495 ft | 325 kts | 29° |
| 2026-04-29 10:01 | 21.97539 | 39.32946 | 10738 ft | 344 kts | 29° |
| 2026-04-29 10:01 | 21.99633 | 39.34324 | 11051 ft | 360 kts | 29° |
| 2026-04-29 10:02 | 22.01795 | 39.35752 | 11549 ft | 369 kts | 29° |
| 2026-04-29 10:02 | 22.04006 | 39.37214 | 12059 ft | 377 kts | 29° |
| 2026-04-29 10:02 | 22.06257 | 39.38704 | 12618 ft | 383 kts | 29° |
| 2026-04-29 10:02 | 22.08542 | 39.40217 | 13226 ft | 388 kts | 29° |
| 2026-04-29 10:03 | 22.10863 | 39.41753 | 13804 ft | 394 kts | 29° |
| 2026-04-29 10:03 | 22.13211 | 39.43309 | 14349 ft | 398 kts | 29° |
| 2026-04-29 10:03 | 22.15581 | 39.44881 | 14944 ft | 401 kts | 29° |
| 2026-04-29 10:03 | 22.17967 | 39.46463 | 15552 ft | 403 kts | 28° |
| 2026-04-29 10:04 | 22.20361 | 39.48052 | 16161 ft | 406 kts | 28° |
| 2026-04-29 10:04 | 22.22778 | 39.49656 | 16722 ft | 410 kts | 28° |
| 2026-04-29 10:04 | 22.25218 | 39.51273 | 17283 ft | 413 kts | 28° |
| 2026-04-29 10:04 | 22.27680 | 39.52906 | 17845 ft | 417 kts | 28° |
| 2026-04-29 10:05 | 22.30143 | 39.54577 | 18370 ft | 421 kts | 31° |
| 2026-04-29 10:05 | 22.32374 | 39.56657 | 18851 ft | 429 kts | 46° |
| 2026-04-29 10:05 | 22.34102 | 39.59304 | 19351 ft | 434 kts | 58° |
| 2026-04-29 10:05 | 22.35603 | 39.62157 | 19785 ft | 439 kts | 60° |
| 2026-04-29 10:06 | 22.37075 | 39.65057 | 20238 ft | 443 kts | 60° |
| 2026-04-29 10:06 | 22.38560 | 39.67983 | 20710 ft | 446 kts | 59° |
| 2026-04-29 10:06 | 22.40058 | 39.70921 | 21217 ft | 447 kts | 59° |
| 2026-04-29 10:06 | 22.41568 | 39.73871 | 21711 ft | 450 kts | 59° |
| 2026-04-29 10:07 | 22.43090 | 39.76840 | 22169 ft | 453 kts | 59° |
| 2026-04-29 10:07 | 22.44623 | 39.79829 | 22595 ft | 456 kts | 59° |
| 2026-04-29 10:07 | 22.46170 | 39.82842 | 22973 ft | 460 kts | 59° |
| 2026-04-29 10:07 | 22.47732 | 39.85881 | 23337 ft | 464 kts | 59° |
| 2026-04-29 10:08 | 22.49305 | 39.88931 | 23803 ft | 465 kts | 59° |
| 2026-04-29 10:08 | 22.50885 | 39.91992 | 24138 ft | 468 kts | 58° |
| 2026-04-29 10:08 | 22.52738 | 39.94889 | 24426 ft | 470 kts | 46° |
| 2026-04-29 10:08 | 22.55018 | 39.97422 | 24732 ft | 470 kts | 39° |
| 2026-04-29 10:09 | 22.57456 | 39.99788 | 25047 ft | 472 kts | 36° |
| 2026-04-29 10:09 | 22.59991 | 40.02064 | 25361 ft | 475 kts | 34° |
| 2026-04-29 10:09 | 22.62581 | 40.04303 | 25653 ft | 478 kts | 34° |
| 2026-04-29 10:09 | 22.65203 | 40.06544 | 25934 ft | 482 kts | 34° |
| 2026-04-29 10:10 | 22.67842 | 40.08804 | 26235 ft | 485 kts | 34° |
| 2026-04-29 10:10 | 22.70489 | 40.11089 | 26529 ft | 489 kts | 34° |
| 2026-04-29 10:10 | 22.73152 | 40.13403 | 26777 ft | 493 kts | 34° |
| 2026-04-29 10:10 | 22.75831 | 40.15744 | 27053 ft | 497 kts | 34° |
| 2026-04-29 10:11 | 22.78525 | 40.18108 | 27356 ft | 500 kts | 34° |
| 2026-04-29 10:11 | 22.81230 | 40.20486 | 27624 ft | 503 kts | 34° |
| 2026-04-29 10:11 | 22.83954 | 40.22882 | 27878 ft | 506 kts | 34° |
| 2026-04-29 10:11 | 22.86656 | 40.25261 | 28142 ft | 509 kts | 34° |
| 2026-04-29 10:12 | 22.89412 | 40.27689 | 28413 ft | 512 kts | 34° |
| 2026-04-29 10:12 | 22.92192 | 40.30136 | 28583 ft | 517 kts | 34° |
| 2026-04-29 10:12 | 22.94994 | 40.32604 | 28830 ft | 520 kts | 34° |
| 2026-04-29 10:12 | 22.97805 | 40.35082 | 29107 ft | 523 kts | 34° |
| 2026-04-29 10:13 | 23.00634 | 40.37577 | 29335 ft | 525 kts | 34° |
| 2026-04-29 10:13 | 23.03477 | 40.40087 | 29576 ft | 528 kts | 34° |
| 2026-04-29 10:13 | 23.06337 | 40.42611 | 29805 ft | 531 kts | 34° |
| 2026-04-29 10:13 | 23.09211 | 40.45150 | 30054 ft | 534 kts | 34° |
| 2026-04-29 10:14 | 23.12104 | 40.47706 | 30160 ft | 539 kts | 34° |
| 2026-04-29 10:14 | 23.15014 | 40.50281 | 30419 ft | 539 kts | 34° |
| 2026-04-29 10:14 | 23.17921 | 40.52856 | 30688 ft | 539 kts | 34° |
| 2026-04-29 10:14 | 23.20834 | 40.55437 | 30921 ft | 541 kts | 34° |
| 2026-04-29 10:15 | 23.23745 | 40.58047 | 31140 ft | 544 kts | 38° |
| 2026-04-29 10:15 | 23.26382 | 40.61036 | 31325 ft | 552 kts | 48° |
| 2026-04-29 10:15 | 23.28525 | 40.64522 | 31543 ft | 559 kts | 60° |
| 2026-04-29 10:15 | 23.30179 | 40.68373 | 31666 ft | 564 kts | 66° |
| 2026-04-29 10:16 | 23.31668 | 40.72329 | 31894 ft | 565 kts | 68° |
| 2026-04-29 10:16 | 23.32612 | 40.75021 | 32112 ft | 564 kts | 69° |
| 2026-04-29 10:16 | 23.34400 | 40.80313 | 32588 ft | 561 kts | 69° |
| 2026-04-29 10:16 | 23.35734 | 40.84299 | 32924 ft | 560 kts | 69° |
| 2026-04-29 10:17 | 23.37073 | 40.88274 | 33248 ft | 559 kts | 69° |
| 2026-04-29 10:17 | 23.38421 | 40.92237 | 33551 ft | 558 kts | 69° |
| 2026-04-29 10:17 | 23.39775 | 40.96186 | 33887 ft | 557 kts | 69° |
| 2026-04-29 10:17 | 23.41135 | 41.00131 | 34169 ft | 556 kts | 69° |
| 2026-04-29 10:18 | 23.42496 | 41.04068 | 34409 ft | 556 kts | 69° |
| 2026-04-29 10:18 | 23.43856 | 41.08003 | 34679 ft | 554 kts | 69° |
| 2026-04-29 10:18 | 23.45211 | 41.11926 | 34927 ft | 554 kts | 69° |
| 2026-04-29 10:18 | 23.46563 | 41.15847 | 34981 ft | 552 kts | 69° |
| 2026-04-29 10:19 | 23.49248 | 41.23645 | 34992 ft | 548 kts | 69° |
| 2026-04-29 10:19 | 23.51919 | 41.31425 | 34984 ft | 548 kts | 69° |
| 2026-04-29 10:20 | 23.54587 | 41.39209 | 34985 ft | 549 kts | 69° |
| 2026-04-29 10:20 | 23.57256 | 41.47011 | 34976 ft | 550 kts | 69° |
| 2026-04-29 10:21 | 23.59923 | 41.54822 | 34975 ft | 550 kts | 69° |
| 2026-04-29 10:21 | 23.62585 | 41.62631 | 34969 ft | 549 kts | 69° |
| 2026-04-29 10:22 | 23.65240 | 41.70435 | 34963 ft | 548 kts | 70° |
| 2026-04-29 10:22 | 23.67873 | 41.78256 | 34952 ft | 550 kts | 70° |
| 2026-04-29 10:23 | 23.70399 | 41.86142 | 34950 ft | 551 kts | 71° |
| 2026-04-29 10:23 | 23.72470 | 41.92708 | 34950 ft | 550 kts | 71° |
| 2026-04-29 10:24 | 23.74980 | 42.00598 | 34936 ft | 550 kts | 70° |
| 2026-04-29 10:24 | 23.77628 | 42.08422 | 34944 ft | 549 kts | 69° |
| 2026-04-29 10:25 | 23.80319 | 42.16218 | 34937 ft | 548 kts | 69° |
| 2026-04-29 10:25 | 23.82995 | 42.24013 | 34938 ft | 548 kts | 69° |
| 2026-04-29 10:26 | 23.85648 | 42.31797 | 34936 ft | 546 kts | 70° |
| 2026-04-29 10:26 | 23.88289 | 42.39578 | 34936 ft | 546 kts | 70° |
| 2026-04-29 10:27 | 23.92243 | 42.51252 | 34934 ft | 546 kts | 70° |
| 2026-04-29 10:28 | 23.94875 | 42.59041 | 34929 ft | 546 kts | 70° |
| 2026-04-29 10:28 | 23.97504 | 42.66834 | 34927 ft | 546 kts | 70° |
| 2026-04-29 10:29 | 24.00120 | 42.74605 | 34928 ft | 544 kts | 70° |
| 2026-04-29 10:29 | 24.02732 | 42.82376 | 34929 ft | 545 kts | 70° |
| 2026-04-29 10:30 | 24.05331 | 42.90134 | 34925 ft | 547 kts | 70° |
| 2026-04-29 10:30 | 24.07916 | 42.97962 | 34923 ft | 547 kts | 70° |
| 2026-04-29 10:31 | 24.10504 | 43.05845 | 34929 ft | 546 kts | 70° |
| 2026-04-29 10:31 | 24.13068 | 43.13663 | 34940 ft | 545 kts | 71° |
| 2026-04-29 10:32 | 24.15617 | 43.21445 | 34700 ft | 549 kts | 71° |
| 2026-04-29 10:32 | 24.16908 | 43.25390 | 34458 ft | 551 kts | 71° |
| 2026-04-29 10:32 | 24.18200 | 43.29342 | 34228 ft | 551 kts | 71° |
| 2026-04-29 10:32 | 24.19491 | 43.33294 | 34011 ft | 552 kts | 71° |
| 2026-04-29 10:33 | 24.20783 | 43.37255 | 33759 ft | 553 kts | 71° |
| 2026-04-29 10:33 | 24.22076 | 43.41221 | 33175 ft | 554 kts | 71° |
| 2026-04-29 10:33 | 24.23372 | 43.45203 | 32603 ft | 556 kts | 71° |
| 2026-04-29 10:33 | 24.24672 | 43.49198 | 32099 ft | 557 kts | 71° |
| 2026-04-29 10:34 | 24.25972 | 43.53198 | 31626 ft | 559 kts | 71° |
| 2026-04-29 10:34 | 24.27276 | 43.57217 | 31178 ft | 560 kts | 71° |
| 2026-04-29 10:34 | 24.28580 | 43.61234 | 30740 ft | 559 kts | 71° |
| 2026-04-29 10:34 | 24.29878 | 43.65241 | 30294 ft | 556 kts | 71° |
| 2026-04-29 10:35 | 24.31167 | 43.69222 | 29857 ft | 553 kts | 71° |
| 2026-04-29 10:35 | 24.32447 | 43.73181 | 29348 ft | 549 kts | 71° |
| 2026-04-29 10:35 | 24.33717 | 43.77113 | 28846 ft | 544 kts | 71° |
| 2026-04-29 10:35 | 24.34973 | 43.81006 | 28387 ft | 540 kts | 71° |
| 2026-04-29 10:36 | 24.36219 | 43.84870 | 27895 ft | 535 kts | 71° |
| 2026-04-29 10:36 | 24.37453 | 43.88701 | 27427 ft | 531 kts | 71° |
| 2026-04-29 10:36 | 24.38675 | 43.92501 | 26964 ft | 526 kts | 71° |
| 2026-04-29 10:36 | 24.39887 | 43.96272 | 26511 ft | 521 kts | 71° |
| 2026-04-29 10:37 | 24.41085 | 44.00004 | 26060 ft | 517 kts | 71° |
| 2026-04-29 10:37 | 24.42274 | 44.03710 | 25616 ft | 512 kts | 71° |
| 2026-04-29 10:37 | 24.43450 | 44.07377 | 25258 ft | 508 kts | 71° |
| 2026-04-29 10:37 | 24.44574 | 44.11033 | 24823 ft | 503 kts | 76° |
| 2026-04-29 10:38 | 24.45353 | 44.14749 | 24432 ft | 497 kts | 79° |
| 2026-04-29 10:38 | 24.46065 | 44.18446 | 24009 ft | 493 kts | 81° |
| 2026-04-29 10:38 | 24.46726 | 44.22119 | 23600 ft | 488 kts | 81° |
| 2026-04-29 10:38 | 24.47358 | 44.25766 | 23095 ft | 484 kts | 82° |
| 2026-04-29 10:39 | 24.47975 | 44.29380 | 22584 ft | 480 kts | 82° |
| 2026-04-29 10:39 | 24.48586 | 44.32966 | 22095 ft | 476 kts | 82° |
| 2026-04-29 10:39 | 24.49193 | 44.36522 | 21608 ft | 471 kts | 82° |
| 2026-04-29 10:39 | 24.49796 | 44.40038 | 21128 ft | 467 kts | 82° |
| 2026-04-29 10:40 | 24.50396 | 44.43524 | 20637 ft | 462 kts | 82° |
| 2026-04-29 10:40 | 24.50991 | 44.46974 | 20177 ft | 458 kts | 82° |
| 2026-04-29 10:40 | 24.51580 | 44.50391 | 19715 ft | 453 kts | 82° |
| 2026-04-29 10:40 | 24.52162 | 44.53774 | 19282 ft | 449 kts | 82° |
| 2026-04-29 10:41 | 24.52737 | 44.57122 | 18858 ft | 444 kts | 82° |
| 2026-04-29 10:41 | 24.53307 | 44.60439 | 18423 ft | 440 kts | 82° |
| 2026-04-29 10:41 | 24.53869 | 44.63721 | 17957 ft | 435 kts | 82° |
| 2026-04-29 10:41 | 24.54426 | 44.66970 | 17452 ft | 431 kts | 82° |
| 2026-04-29 10:42 | 24.54976 | 44.70186 | 16976 ft | 426 kts | 82° |
| 2026-04-29 10:42 | 24.55520 | 44.73372 | 16510 ft | 422 kts | 82° |
| 2026-04-29 10:42 | 24.56057 | 44.76525 | 16099 ft | 417 kts | 82° |
| 2026-04-29 10:42 | 24.56585 | 44.79620 | 15954 ft | 409 kts | 83° |
| 2026-04-29 10:43 | 24.57100 | 44.82652 | 15936 ft | 410 kts | 83° |
| 2026-04-29 10:43 | 24.57628 | 44.85769 | 15931 ft | 410 kts | 83° |
| 2026-04-29 10:43 | 24.58151 | 44.88854 | 15936 ft | 411 kts | 83° |
| 2026-04-29 10:43 | 24.58674 | 44.91939 | 15936 ft | 411 kts | 83° |
| 2026-04-29 10:44 | 24.59196 | 44.95027 | 15944 ft | 411 kts | 83° |
| 2026-04-29 10:44 | 24.59711 | 44.98073 | 15782 ft | 411 kts | 83° |
| 2026-04-29 10:44 | 24.60229 | 45.01148 | 15528 ft | 409 kts | 83° |
| 2026-04-29 10:44 | 24.60746 | 45.04214 | 15284 ft | 407 kts | 83° |
| 2026-04-29 10:45 | 24.61260 | 45.07270 | 15049 ft | 406 kts | 83° |
| 2026-04-29 10:45 | 24.61771 | 45.10315 | 14939 ft | 405 kts | 83° |
| 2026-04-29 10:45 | 24.62281 | 45.13356 | 14919 ft | 404 kts | 83° |
| 2026-04-29 10:45 | 24.62790 | 45.16393 | 14929 ft | 404 kts | 83° |
| 2026-04-29 10:46 | 24.63298 | 45.19430 | 14928 ft | 404 kts | 83° |
| 2026-04-29 10:46 | 24.63806 | 45.22473 | 14926 ft | 405 kts | 83° |
| 2026-04-29 10:46 | 24.64315 | 45.25524 | 14927 ft | 406 kts | 83° |
| 2026-04-29 10:46 | 24.64823 | 45.28573 | 14927 ft | 406 kts | 83° |
| 2026-04-29 10:47 | 24.65330 | 45.31622 | 14928 ft | 406 kts | 83° |
| 2026-04-29 10:47 | 24.65837 | 45.34670 | 14916 ft | 406 kts | 83° |
| 2026-04-29 10:47 | 24.66344 | 45.37720 | 14916 ft | 405 kts | 83° |
| 2026-04-29 10:47 | 24.66849 | 45.40768 | 14917 ft | 405 kts | 83° |
| 2026-04-29 10:48 | 24.67354 | 45.43814 | 14918 ft | 405 kts | 83° |
| 2026-04-29 10:48 | 24.67858 | 45.46861 | 14924 ft | 405 kts | 83° |
| 2026-04-29 10:48 | 24.68361 | 45.49911 | 14921 ft | 405 kts | 83° |
| 2026-04-29 10:48 | 24.68864 | 45.52958 | 14919 ft | 405 kts | 83° |
| 2026-04-29 10:49 | 24.69366 | 45.56008 | 14921 ft | 405 kts | 83° |
| 2026-04-29 10:49 | 24.69869 | 45.59057 | 14921 ft | 405 kts | 83° |
| 2026-04-29 10:49 | 24.70369 | 45.62107 | 14923 ft | 405 kts | 83° |
| 2026-04-29 10:49 | 24.70870 | 45.65156 | 14922 ft | 405 kts | 83° |
| 2026-04-29 10:50 | 24.71408 | 45.68202 | 14910 ft | 407 kts | 81° |
| 2026-04-29 10:50 | 24.72065 | 45.71226 | 14694 ft | 406 kts | 79° |
| 2026-04-29 10:50 | 24.72754 | 45.74231 | 14462 ft | 404 kts | 79° |
| 2026-04-29 10:50 | 24.73441 | 45.77221 | 14230 ft | 402 kts | 79° |
| 2026-04-29 10:51 | 24.74120 | 45.80194 | 14012 ft | 401 kts | 79° |
| 2026-04-29 10:51 | 24.74797 | 45.83167 | 13600 ft | 401 kts | 79° |
| 2026-04-29 10:51 | 24.75472 | 45.86145 | 13091 ft | 398 kts | 79° |
| 2026-04-29 10:51 | 24.76136 | 45.89071 | 12729 ft | 391 kts | 79° |
| 2026-04-29 10:52 | 24.76788 | 45.91952 | 12287 ft | 386 kts | 79° |
| 2026-04-29 10:52 | 24.77430 | 45.94793 | 11874 ft | 381 kts | 79° |
| 2026-04-29 10:52 | 24.78059 | 45.97578 | 11453 ft | 377 kts | 78° |
| 2026-04-29 10:52 | 24.78688 | 46.00365 | 10988 ft | 374 kts | 78° |
| 2026-04-29 10:53 | 24.79319 | 46.03166 | 10587 ft | 369 kts | 78° |
| 2026-04-29 10:53 | 24.79924 | 46.05849 | 10377 ft | 351 kts | 78° |
| 2026-04-29 10:53 | 24.80496 | 46.08379 | 10150 ft | 330 kts | 79° |
| 2026-04-29 10:53 | 24.81029 | 46.10745 | 9785 ft | 317 kts | 79° |
| 2026-04-29 10:54 | 24.81548 | 46.13066 | 9260 ft | 309 kts | 78° |
| 2026-04-29 10:54 | 24.82063 | 46.15365 | 8718 ft | 301 kts | 78° |
| 2026-04-29 10:54 | 24.82705 | 46.17542 | 8152 ft | 299 kts | 67° |
| 2026-04-29 10:54 | 24.83690 | 46.19551 | 7527 ft | 298 kts | 60° |
| 2026-04-29 10:55 | 24.84763 | 46.21448 | 7214 ft | 284 kts | 59° |
| 2026-04-29 10:55 | 24.85788 | 46.23225 | 7008 ft | 267 kts | 58° |
| 2026-04-29 10:55 | 24.86887 | 46.24800 | 6821 ft | 262 kts | 46° |
| 2026-04-29 10:55 | 24.88370 | 46.25963 | 6722 ft | 263 kts | 25° |
| 2026-04-29 10:56 | 24.90131 | 46.26453 | 6606 ft | 262 kts | 4° |
| 2026-04-29 10:56 | 24.91934 | 46.26192 | 6500 ft | 263 kts | 342° |
| 2026-04-29 10:56 | 24.93592 | 46.25335 | 6386 ft | 264 kts | 332° |
| 2026-04-29 10:56 | 24.95183 | 46.24312 | 6256 ft | 265 kts | 331° |
| 2026-04-29 10:57 | 24.96762 | 46.23269 | 6135 ft | 264 kts | 331° |
| 2026-04-29 10:57 | 24.98338 | 46.22237 | 6021 ft | 263 kts | 331° |
| 2026-04-29 10:57 | 24.99914 | 46.21216 | 5974 ft | 263 kts | 331° |
| 2026-04-29 10:57 | 25.01496 | 46.20197 | 5974 ft | 263 kts | 330° |
| 2026-04-29 10:58 | 25.03076 | 46.19184 | 5971 ft | 262 kts | 330° |
| 2026-04-29 10:58 | 25.04644 | 46.18178 | 5973 ft | 260 kts | 331° |
| 2026-04-29 10:58 | 25.06262 | 46.17307 | 5978 ft | 258 kts | 345° |
| 2026-04-29 10:58 | 25.08017 | 46.17090 | 5980 ft | 253 kts | 10° |
| 2026-04-29 10:59 | 25.09645 | 46.17709 | 5974 ft | 247 kts | 35° |
| 2026-04-29 10:59 | 25.10868 | 46.19007 | 5978 ft | 245 kts | 56° |
| 2026-04-29 10:59 | 25.11781 | 46.20601 | 5982 ft | 247 kts | 60° |
| 2026-04-29 10:59 | 25.12630 | 46.22244 | 5981 ft | 246 kts | 62° |
| 2026-04-29 11:00 | 25.13472 | 46.23880 | 5979 ft | 245 kts | 61° |
| 2026-04-29 11:00 | 25.14319 | 46.25511 | 5981 ft | 245 kts | 61° |
| 2026-04-29 11:00 | 25.15172 | 46.27142 | 5953 ft | 246 kts | 61° |
| 2026-04-29 11:00 | 25.16029 | 46.28777 | 5835 ft | 245 kts | 60° |
| 2026-04-29 11:01 | 25.16868 | 46.30374 | 5712 ft | 236 kts | 60° |
| 2026-04-29 11:01 | 25.17675 | 46.31908 | 5616 ft | 225 kts | 60° |
| 2026-04-29 11:01 | 25.18448 | 46.33377 | 5537 ft | 219 kts | 60° |
| 2026-04-29 11:01 | 25.19212 | 46.34831 | 5414 ft | 219 kts | 60° |
| 2026-04-29 11:02 | 25.19980 | 46.36291 | 5290 ft | 220 kts | 60° |
| 2026-04-29 11:02 | 25.20751 | 46.37755 | 5169 ft | 219 kts | 60° |
| 2026-04-29 11:02 | 25.21514 | 46.39204 | 5045 ft | 217 kts | 60° |
| 2026-04-29 11:02 | 25.22269 | 46.40638 | 4982 ft | 216 kts | 59° |
| 2026-04-29 11:03 | 25.23026 | 46.42074 | 4982 ft | 216 kts | 60° |
| 2026-04-29 11:03 | 25.23762 | 46.43471 | 4980 ft | 202 kts | 60° |
| 2026-04-29 11:03 | 25.24433 | 46.44745 | 4993 ft | 184 kts | 60° |
| 2026-04-29 11:03 | 25.25050 | 46.45956 | 4987 ft | 183 kts | 64° |
| 2026-04-29 11:04 | 25.25464 | 46.47290 | 4994 ft | 186 kts | 79° |
| 2026-04-29 11:04 | 25.25469 | 46.48719 | 4979 ft | 187 kts | 97° |
| 2026-04-29 11:04 | 25.25014 | 46.50072 | 4986 ft | 191 kts | 117° |
| 2026-04-29 11:04 | 25.24162 | 46.51204 | 4985 ft | 194 kts | 132° |
| 2026-04-29 11:05 | 25.23158 | 46.52204 | 4982 ft | 195 kts | 136° |
| 2026-04-29 11:05 | 25.22132 | 46.53185 | 4980 ft | 195 kts | 135° |
| 2026-04-29 11:05 | 25.21104 | 46.54168 | 4981 ft | 195 kts | 135° |
| 2026-04-29 11:05 | 25.20077 | 46.55156 | 4983 ft | 196 kts | 135° |
| 2026-04-29 11:06 | 25.19069 | 46.56169 | 4989 ft | 195 kts | 131° |
| 2026-04-29 11:06 | 25.18020 | 46.57130 | 4989 ft | 197 kts | 141° |
| 2026-04-29 11:06 | 25.16849 | 46.57931 | 4991 ft | 198 kts | 144° |
| 2026-04-29 11:06 | 25.15657 | 46.58700 | 4975 ft | 199 kts | 146° |
| 2026-04-29 11:07 | 25.14463 | 46.59457 | 4976 ft | 197 kts | 145° |
| 2026-04-29 11:07 | 25.13282 | 46.60220 | 4974 ft | 196 kts | 145° |
| 2026-04-29 11:07 | 25.12107 | 46.60988 | 4968 ft | 197 kts | 145° |
| 2026-04-29 11:07 | 25.10929 | 46.61757 | 4969 ft | 197 kts | 146° |
| 2026-04-29 11:08 | 25.09772 | 46.62502 | 4802 ft | 187 kts | 145° |
| 2026-04-29 11:08 | 25.08676 | 46.63194 | 4556 ft | 178 kts | 145° |
| 2026-04-29 11:08 | 25.07634 | 46.63856 | 4307 ft | 169 kts | 145° |
| 2026-04-29 11:08 | 25.06661 | 46.64475 | 4108 ft | 155 kts | 143° |
| 2026-04-29 11:09 | 25.05735 | 46.65066 | 3911 ft | 153 kts | 144° |
| 2026-04-29 11:09 | 25.04812 | 46.65655 | 3714 ft | 154 kts | 143° |
| 2026-04-29 11:09 | 25.03884 | 46.66246 | 3516 ft | 154 kts | 144° |
| 2026-04-29 11:09 | 25.02957 | 46.66836 | 3323 ft | 153 kts | 146° |
| 2026-04-29 11:10 | 25.02030 | 46.67418 | 3108 ft | 153 kts | 143° |
| 2026-04-29 11:10 | 25.01109 | 46.68010 | 2884 ft | 154 kts | 144° |
| 2026-04-29 11:10 | 25.00182 | 46.68599 | 2699 ft | 154 kts | 142° |
| 2026-04-29 11:10 | 24.99255 | 46.69210 | 2425 ft | 155 kts | 144° |
| 2026-04-29 11:11 | 24.98336 | 46.69788 | 2204 ft | 149 kts | 144° |
| 2026-04-29 11:11 | 24.97449 | 46.70349 | 2053 ft | 145 kts | 146° |
| 2026-04-29 11:11 | 24.96936 | 46.70679 | 2043 ft | 103 kts | 150° |
| 2026-04-29 11:11 | 24.96488 | 46.70955 | 2038 ft | 54 kts | 151° |
| 2026-04-29 11:12 | 24.96124 | 46.71096 | 2042 ft | 25 kts | 183° |
| 2026-04-29 11:12 | 24.96068 | 46.71082 | 2038 ft | 9 kts | 198° |
| 2026-04-29 11:12 | 24.96025 | 46.71051 | 2042 ft | 0 kts | 218° |
| 2026-04-29 11:12 | 24.96015 | 46.71042 | 2041 ft | 4 kts | 219° |
| 2026-04-29 11:13 | 24.96011 | 46.71038 | 2044 ft | 0 kts | 220° |
| 2026-04-29 11:13 | 24.96010 | 46.71037 | 2044 ft | 0 kts | 220° |
| 2026-04-29 11:13 | 24.96008 | 46.71035 | 2044 ft | 1 kts | 220° |
| 2026-04-29 11:13 | 24.95996 | 46.71021 | 2041 ft | 5 kts | 230° |
| 2026-04-29 11:14 | 24.95972 | 46.70980 | 2042 ft | 6 kts | 239° |
| 2026-04-29 11:14 | 24.95949 | 46.70936 | 2041 ft | 7 kts | 239° |
| 2026-04-29 11:14 | 24.95924 | 46.70890 | 2042 ft | 7 kts | 240° |
| 2026-04-29 11:14 | 24.95898 | 46.70841 | 2042 ft | 8 kts | 240° |
| 2026-04-29 11:15 | 24.95871 | 46.70788 | 2042 ft | 8 kts | 240° |
| 2026-04-29 11:15 | 24.95842 | 46.70740 | 2044 ft | 7 kts | 225° |
| 2026-04-29 11:15 | 24.95807 | 46.70735 | 2043 ft | 5 kts | 172° |
| 2026-04-29 11:15 | 24.95781 | 46.70747 | 2042 ft | 2 kts | 153° |
| 2026-04-29 11:16 | 24.95765 | 46.70757 | 2044 ft | 3 kts | 151° |
| 2026-04-29 11:16 | 24.95745 | 46.70765 | 2044 ft | 3 kts | 170° |
| 2026-04-29 11:16 | 24.95727 | 46.70758 | 2041 ft | 3 kts | 209° |
| 2026-04-29 11:16 | 24.95714 | 46.70742 | 2044 ft | 2 kts | 238° |
| 2026-04-29 11:17 | 24.95703 | 46.70722 | 2040 ft | 4 kts | 239° |
| 2026-04-29 11:17 | 24.95690 | 46.70697 | 2044 ft | 1 kts | 240° |
| 2026-04-29 11:17 | 24.95689 | 46.70693 | 2044 ft | 0 kts | 240° |